Time;durP1;ratioP1;P1;durP2;ratioP2;P2;SDS_P1;SDS_P2;PMS_P1;PMS_P2;Temp;Humidity;BMP_temperature;BMP_pressure;BME280_temperature;BME280_humidity;BME280_pressure;Samples;Min_cycle;Max_cycle;Signal;HPM_P1;HPM_P2
2022/01/17 00:01:02;;;;;;;;;;;;;;;;;;6216452;23;19904;-80
2022/01/17 00:03:28;;;;;;;;;;;;;;;;;;6189124;23;19904;-80
2022/01/17 00:05:53;;;;;;;;;;;;;;;;;;6216388;23;20241;-80
2022/01/17 00:08:19;;;;;;;;;;;;;;;;;;6216171;23;19911;-80
2022/01/17 00:10:46;;;;;;;;;;;;;;;;;;6189418;23;19907;-80
2022/01/17 00:13:20;;;;;;;;;;;;;;;;;;6216595;23;19951;-80
2022/01/17 00:15:50;;;;;;;;;;;;;;;;;;6216149;23;19946;-80
2022/01/17 00:20:45;;;;;;;;;;;;;;;;;;6216059;23;19958;-80
2022/01/17 00:23:11;;;;;;;;;;;;;;;;;;6189267;23;19933;-80
2022/01/17 00:25:37;;;;;;;;;;;;;;;;;;6215570;23;20400;-80
2022/01/17 00:28:04;;;;;;;;;;;;;;;;;;6216433;23;19911;-79
2022/01/17 00:30:30;;;;;;;;;;;;;;;;;;6216500;23;20219;-80
2022/01/17 00:32:55;;;;;;;;;;;;;;;;;;6189371;23;19911;-80
2022/01/17 00:35:21;;;;;;;;;;;;;;;;;;6216177;23;20285;-80
2022/01/17 00:37:49;;;;;;;;;;;;;;;;;;6215648;23;19955;-79
2022/01/17 00:40:14;;;;;;;;;;;;;;;;;;6216231;23;19983;-79
2022/01/17 00:42:41;;;;;;;;;;;;;;;;;;6216315;23;19900;-80
2022/01/17 00:45:07;;;;;;;;;;;;;;;;;;6189551;23;19931;-80
2022/01/17 00:47:33;;;;;;;;;;;;;;;;;;6216053;23;20306;-80
2022/01/17 00:49:59;;;;;;;;;;;;;;;;;;6215945;23;19904;-80
2022/01/17 00:52:25;;;;;;;;;;;;;;;;;;6216054;23;19935;-80
2022/01/17 00:54:51;;;;;;;;;;;;;;;;;;6215716;23;19928;-79
2022/01/17 00:57:17;;;;;;;;;;;;;;;;;;6215698;23;19908;-80
2022/01/17 00:59:43;;;;;;;;;;;;;;;;;;6215800;23;19903;-79
2022/01/17 01:02:09;;;;;;;;;;;;;;;;;;6216126;23;19962;-80
2022/01/17 01:04:35;;;;;;;;;;;;;;;;;;6189259;23;19986;-80
2022/01/17 01:07:01;;;;;;;;;;;;;;;;;;6215293;23;19974;-79
2022/01/17 01:09:31;;;;;;;;;;;;;;;;;;6215980;23;20314;-80
2022/01/17 01:11:57;;;;;;;;;;;;;;;;;;6215305;23;19939;-80
2022/01/17 01:14:23;;;;;;;;;;;;;;;;;;6215941;23;19904;-80
2022/01/17 01:16:51;;;;;;;;;;;;;;;;;;6215569;23;19904;-80
2022/01/17 01:30:13;;;;;;;;;;;;;;;;;;6123835;23;20299;-80
2022/01/17 01:32:46;;;;;;;;;;;;;;;;;;6099692;23;19912;-80
2022/01/17 01:35:14;;;;;;;;;;;;;;;;;;6098784;23;20260;-80
2022/01/17 01:37:43;;;;;;;;;;;;;;;;;;6099415;23;19940;-80
2022/01/17 01:40:09;;;;;;;;;;;;;;;;;;6123612;23;19905;-80
2022/01/17 01:42:35;;;;;;;;;;;;;;;;;;6124083;23;20220;-80
2022/01/17 01:45:02;;;;;;;;;;;;;;;;;;6099298;23;19905;-80
2022/01/17 01:47:28;;;;;;;;;;;;;;;;;;6123789;23;19905;-80
2022/01/17 01:49:54;;;;;;;;;;;;;;;;;;6123301;23;19912;-79
2022/01/17 01:52:20;;;;;;;;;;;;;;;;;;6123822;23;19936;-80
2022/01/17 01:54:46;;;;;;;;;;;;;;;;;;6123730;23;19932;-80
2022/01/17 01:57:12;;;;;;;;;;;;;;;;;;6123377;23;19909;-80
2022/01/17 01:59:37;;;;;;;;;;;;;;;;;;6099329;23;19905;-80
2022/01/17 02:02:03;;;;;;;;;;;;;;;;;;6123466;23;19905;-80
2022/01/17 02:04:29;;;;;;;;;;;;;;;;;;6154544;23;19904;-79
2022/01/17 02:06:55;;;;;;;;;;;;;;;;;;6188731;23;19915;-79
2022/01/17 02:09:23;;;;;;;;;;;;;;;;;;6214985;23;20350;-80
2022/01/17 02:11:49;;;;;;;;;;;;;;;;;;6215352;23;20298;-79
2022/01/17 02:14:15;;;;;;;;;;;;;;;;;;6215320;23;19931;-80
2022/01/17 02:16:43;;;;;;;;;;;;;;;;;;6215413;23;19903;-79
2022/01/17 02:19:09;;;;;;;;;;;;;;;;;;6215094;23;20726;-80
2022/01/17 02:21:47;;;;;;;;;;;;;;;;;;6215285;23;19908;-80
2022/01/17 02:24:14;;;;;;;;;;;;;;;;;;6214979;23;19994;-80
2022/01/17 02:26:40;;;;;;;;;;;;;;;;;;6191209;23;19948;-80
2022/01/17 02:29:06;;;;;;;;;;;;;;;;;;6218538;23;19954;-79
2022/01/17 02:31:32;;;;;;;;;;;;;;;;;;6192229;23;19910;-80
2022/01/17 02:33:58;;;;;;;;;;;;;;;;;;6191336;23;19986;-81
2022/01/17 02:36:24;;;;;;;;;;;;;;;;;;6218543;23;19978;-80
2022/01/17 02:38:50;;;;;;;;;;;;;;;;;;6218659;23;19961;-80
2022/01/17 02:41:16;;;;;;;;;;;;;;;;;;6218455;23;19904;-80
2022/01/17 02:43:42;;;;;;;;;;;;;;;;;;6218864;23;19956;-80
2022/01/17 02:48:33;;;;;;;;;;;;;;;;;;6218421;23;19904;-80
2022/01/17 02:50:59;;;;;;;;;;;;;;;;;;6218301;23;19931;-80
2022/01/17 02:53:25;;;;;;;;;;;;;;;;;;6191890;23;20391;-80
2022/01/17 02:55:51;;;;;;;;;;;;;;;;;;6218500;23;19904;-79
2022/01/17 02:58:19;;;;;;;;;;;;;;;;;;6191555;23;19931;-79
2022/01/17 03:00:45;;;;;;;;;;;;;;;;;;6218613;23;19923;-80
2022/01/17 03:03:12;;;;;;;;;;;;;;;;;;6217494;23;19983;-79
2022/01/17 03:05:38;;;;;;;;;;;;;;;;;;6218618;23;19970;-80
2022/01/17 03:08:04;;;;;;;;;;;;;;;;;;6218301;23;20329;-80
2022/01/17 03:10:43;;;;;;;;;;;;;;;;;;6218553;23;19911;-79
2022/01/17 03:13:10;;;;;;;;;;;;;;;;;;6218381;23;20338;-79
2022/01/17 03:15:36;;;;;;;;;;;;;;;;;;6191582;23;19915;-80
2022/01/17 03:18:01;;;;;;;;;;;;;;;;;;6191541;23;20558;-79
2022/01/17 03:20:27;;;;;;;;;;;;;;;;;;6218069;23;20241;-80
2022/01/17 03:22:53;;;;;;;;;;;;;;;;;;6218296;23;19908;-80
2022/01/17 03:25:19;;;;;;;;;;;;;;;;;;6217670;23;19927;-80
2022/01/17 03:27:45;;;;;;;;;;;;;;;;;;6218863;23;19962;-80
2022/01/17 03:30:11;;;;;;;;;;;;;;;;;;6191016;23;19911;-80
2022/01/17 03:32:37;;;;;;;;;;;;;;;;;;6218573;23;20222;-79
2022/01/17 03:35:03;;;;;;;;;;;;;;;;;;6218281;23;19904;-79
2022/01/17 03:37:29;;;;;;;;;;;;;;;;;;6216680;23;19915;-80
2022/01/17 03:39:54;;;;;;;;;;;;;;;;;;6190128;23;20508;-80
2022/01/17 03:42:21;;;;;;;;;;;;;;;;;;6216872;23;19904;-80
2022/01/17 03:44:47;;;;;;;;;;;;;;;;;;6216433;23;19908;-80
2022/01/17 03:47:13;;;;;;;;;;;;;;;;;;6190016;23;20002;-80
2022/01/17 03:49:39;;;;;;;;;;;;;;;;;;6216276;23;20003;-80
2022/01/17 03:52:05;;;;;;;;;;;;;;;;;;6216503;23;19982;-79
2022/01/17 03:54:31;;;;;;;;;;;;;;;;;;6189990;23;20308;-80
2022/01/17 03:56:57;;;;;;;;;;;;;;;;;;6190031;23;20326;-80
2022/01/17 03:59:23;;;;;;;;;;;;;;;;;;6215802;23;19954;-79
2022/01/17 04:01:49;;;;;;;;;;;;;;;;;;6216773;23;19954;-80
2022/01/17 04:04:15;;;;;;;;;;;;;;;;;;6189717;23;20287;-79
2022/01/17 04:06:41;;;;;;;;;;;;;;;;;;6189720;23;19911;-80
2022/01/17 04:09:06;;;;;;;;;;;;;;;;;;6190079;23;19983;-78
2022/01/17 04:11:32;;;;;;;;;;;;;;;;;;6216140;23;20250;-80
2022/01/17 04:13:58;;;;;;;;;;;;;;;;;;6189349;23;19904;-80
2022/01/17 04:16:24;;;;;;;;;;;;;;;;;;6216173;23;19904;-79
2022/01/17 04:18:50;;;;;;;;;;;;;;;;;;6216562;23;19930;-80
2022/01/17 04:21:16;;;;;;;;;;;;;;;;;;6215857;23;19908;-79
2022/01/17 04:23:42;;;;;;;;;;;;;;;;;;6216196;23;19911;-80
2022/01/17 04:26:08;;;;;;;;;;;;;;;;;;6216129;23;19916;-80
2022/01/17 04:28:35;;;;;;;;;;;;;;;;;;6188855;23;19912;-79
2022/01/17 04:31:01;;;;;;;;;;;;;;;;;;6189912;23;19950;-80
2022/01/17 04:33:27;;;;;;;;;;;;;;;;;;6189467;23;19908;-80
2022/01/17 04:35:53;;;;;;;;;;;;;;;;;;6216064;23;19904;-79
2022/01/17 04:38:18;;;;;;;;;;;;;;;;;;6189117;23;20334;-79
2022/01/17 04:40:46;;;;;;;;;;;;;;;;;;6189786;23;19953;-80
2022/01/17 04:45:44;;;;;;;;;;;;;;;;;;6215956;23;20314;-80
2022/01/17 04:48:09;;;;;;;;;;;;;;;;;;6215789;23;19956;-80
2022/01/17 04:50:36;;;;;;;;;;;;;;;;;;6215872;23;19904;-80
2022/01/17 04:53:02;;;;;;;;;;;;;;;;;;6215941;23;19908;-80
2022/01/17 04:55:28;;;;;;;;;;;;;;;;;;6215877;23;19904;-79
2022/01/17 04:57:56;;;;;;;;;;;;;;;;;;6215701;23;19915;-79
2022/01/17 05:00:22;;;;;;;;;;;;;;;;;;6215754;23;19904;-79
2022/01/17 05:02:48;;;;;;;;;;;;;;;;;;6189399;23;19956;-80
2022/01/17 05:05:13;;;;;;;;;;;;;;;;;;6215804;23;19911;-80
2022/01/17 05:07:39;;;;;;;;;;;;;;;;;;6189297;23;19904;-80
2022/01/17 05:10:05;;;;;;;;;;;;;;;;;;6215983;23;19908;-80
2022/01/17 05:12:32;;;;;;;;;;;;;;;;;;6215391;23;20337;-79
2022/01/17 05:14:59;;;;;;;;;;;;;;;;;;6215776;23;19993;-81
2022/01/17 05:19:54;;;;;;;;;;;;;;;;;;6215746;23;19908;-79
2022/01/17 05:22:20;;;;;;;;;;;;;;;;;;6215853;23;19900;-80
2022/01/17 05:24:46;;;;;;;;;;;;;;;;;;6215290;23;19915;-81
2022/01/17 05:27:12;;;;;;;;;;;;;;;;;;6215210;23;19908;-79
2022/01/17 05:29:38;;;;;;;;;;;;;;;;;;6215185;23;20022;-81
2022/01/17 05:32:04;;;;;;;;;;;;;;;;;;6215637;23;19931;-79
2022/01/17 05:34:30;;;;;;;;;;;;;;;;;;6215352;23;19954;-80
2022/01/17 05:36:56;;;;;;;;;;;;;;;;;;6189002;23;19927;-79
2022/01/17 05:39:22;;;;;;;;;;;;;;;;;;6215107;23;19904;-79
2022/01/17 05:41:48;;;;;;;;;;;;;;;;;;6188377;23;19911;-80
2022/01/17 05:44:13;;;;;;;;;;;;;;;;;;6188283;23;19908;-80
2022/01/17 05:46:39;;;;;;;;;;;;;;;;;;6215229;23;19904;-80
2022/01/17 05:49:05;;;;;;;;;;;;;;;;;;6215655;23;19931;-80
2022/01/17 05:51:31;;;;;;;;;;;;;;;;;;6215290;23;19950;-79
2022/01/17 05:53:57;;;;;;;;;;;;;;;;;;6215655;23;19904;-80
2022/01/17 05:56:23;;;;;;;;;;;;;;;;;;6188396;23;19979;-80
2022/01/17 05:58:49;;;;;;;;;;;;;;;;;;6188320;23;19999;-80
2022/01/17 06:01:15;;;;;;;;;;;;;;;;;;6214944;23;19934;-80
2022/01/17 06:03:41;;;;;;;;;;;;;;;;;;6188490;23;20250;-80
2022/01/17 06:06:07;;;;;;;;;;;;;;;;;;6215504;23;19910;-78
2022/01/17 06:08:33;;;;;;;;;;;;;;;;;;6188901;23;19910;-79
2022/01/17 06:10:59;;;;;;;;;;;;;;;;;;6214712;23;19942;-80
2022/01/17 06:13:25;;;;;;;;;;;;;;;;;;6188673;23;20274;-80
2022/01/17 06:15:51;;;;;;;;;;;;;;;;;;6188128;23;19908;-81
2022/01/17 06:18:16;;;;;;;;;;;;;;;;;;6215185;23;19908;-80
2022/01/17 06:20:42;;;;;;;;;;;;;;;;;;6194564;23;19939;-80
2022/01/17 06:23:08;;;;;;;;;;;;;;;;;;6215046;23;19932;-80
2022/01/17 08:16:17;;;;;;;;;;;;;;;;;;6195981;23;19969;-79
2022/01/17 08:18:43;;;;;;;;;;;;;;;;;;6171524;23;19991;-79
2022/01/17 08:21:09;;;;;;;;;;;;;;;;;;6200291;23;20400;-80
2022/01/17 08:23:36;;;;;;;;;;;;;;;;;;6178566;23;20337;-78
2022/01/17 08:26:02;;;;;;;;;;;;;;;;;;6179418;23;19904;-79
2022/01/17 08:28:28;;;;;;;;;;;;;;;;;;6201644;23;19954;-78
2022/01/17 08:30:54;;;;;;;;;;;;;;;;;;6203695;23;19958;-79
2022/01/17 08:33:20;;;;;;;;;;;;;;;;;;6177745;23;19939;-79
2022/01/17 08:35:46;;;;;;;;;;;;;;;;;;6200910;23;19904;-78
2022/01/17 08:38:11;;;;;;;;;;;;;;;;;;6205730;23;19912;-79
2022/01/17 08:40:37;;;;;;;;;;;;;;;;;;6209113;23;19994;-81
2022/01/17 08:43:03;;;;;;;;;;;;;;;;;;6177910;23;19904;-79
2022/01/17 08:45:29;;;;;;;;;;;;;;;;;;6181096;23;20344;-80
2022/01/17 08:47:55;;;;;;;;;;;;;;;;;;6202829;23;19908;-79
2022/01/17 08:50:21;;;;;;;;;;;;;;;;;;6202535;23;19904;-77
2022/01/17 08:52:47;;;;;;;;;;;;;;;;;;6178803;23;19979;-76
2022/01/17 08:55:13;;;;;;;;;;;;;;;;;;6203822;23;19908;-77
2022/01/17 08:57:39;;;;;;;;;;;;;;;;;;6201221;23;19919;-77
2022/01/17 09:00:05;;;;;;;;;;;;;;;;;;6198368;23;19982;-77
2022/01/17 09:02:31;;;;;;;;;;;;;;;;;;6205996;23;20295;-77
2022/01/17 09:04:56;;;;;;;;;;;;;;;;;;6201889;23;20341;-77
2022/01/17 09:07:22;;;;;;;;;;;;;;;;;;6179802;23;19904;-77
2022/01/17 09:09:48;;;;;;;;;;;;;;;;;;6201920;23;19908;-77
2022/01/17 09:12:15;;;;;;;;;;;;;;;;;;6207709;23;20300;-77
2022/01/17 09:14:41;;;;;;;;;;;;;;;;;;6205881;23;19935;-76
2022/01/17 09:17:07;;;;;;;;;;;;;;;;;;6181515;23;19916;-77
2022/01/17 09:19:33;;;;;;;;;;;;;;;;;;6200835;23;19958;-77
2022/01/17 09:21:59;;;;;;;;;;;;;;;;;;6204742;23;19908;-77
2022/01/17 09:24:25;;;;;;;;;;;;;;;;;;6203298;23;19911;-77
2022/01/17 09:26:51;;;;;;;;;;;;;;;;;;6176053;23;19927;-76
2022/01/17 09:29:16;;;;;;;;;;;;;;;;;;6204160;23;19904;-77
2022/01/17 09:31:42;;;;;;;;;;;;;;;;;;6202440;23;19904;-76
2022/01/17 09:34:08;;;;;;;;;;;;;;;;;;6178080;23;20273;-77
2022/01/17 09:36:35;;;;;;;;;;;;;;;;;;6203537;23;19904;-77
2022/01/17 09:39:01;;;;;;;;;;;;;;;;;;6204277;23;19955;-77
2022/01/17 09:41:26;;;;;;;;;;;;;;;;;;6204009;23;20242;-77
2022/01/17 09:43:52;;;;;;;;;;;;;;;;;;6206555;23;19908;-77
2022/01/17 09:46:21;;;;;;;;;;;;;;;;;;6201346;23;19911;-76
2022/01/17 09:48:49;;;;;;;;;;;;;;;;;;6202935;23;19990;-76
2022/01/17 09:51:18;;;;;;;;;;;;;;;;;;6203012;23;20420;-76
2022/01/17 09:53:44;;;;;;;;;;;;;;;;;;6204659;23;19908;-77
2022/01/17 09:56:10;;;;;;;;;;;;;;;;;;6206347;23;20333;-77
2022/01/17 09:58:36;;;;;;;;;;;;;;;;;;6204298;23;19934;-78
2022/01/17 10:01:04;;;;;;;;;;;;;;;;;;6206035;23;19904;-78
2022/01/17 10:03:29;;;;;;;;;;;;;;;;;;6208802;23;19904;-77
2022/01/17 10:05:55;;;;;;;;;;;;;;;;;;6183540;23;19927;-77
2022/01/17 10:08:22;;;;;;;;;;;;;;;;;;6207901;23;19904;-76
2022/01/17 10:10:54;;;;;;;;;;;;;;;;;;6211089;23;19904;-77
2022/01/17 10:13:23;;;;;;;;;;;;;;;;;;6210327;23;19908;-77
2022/01/17 10:15:49;;;;;;;;;;;;;;;;;;6185422;23;19912;-77
2022/01/17 10:18:15;;;;;;;;;;;;;;;;;;6180455;23;20301;-77
2022/01/17 10:20:41;;;;;;;;;;;;;;;;;;6211666;23;19904;-76
2022/01/17 10:23:09;;;;;;;;;;;;;;;;;;6210371;23;20141;-77
2022/01/17 10:28:19;;;;;;;;;;;;;;;;;;6211806;23;19911;-79
2022/01/17 10:34:52;;;;;;;;;;;;;;;;;;6184614;23;19947;-77
2022/01/17 10:36:23;;;;;;;;;;;;;;;;;;6211206;23;19914;-77
2022/01/17 10:38:49;;;;;;;;;;;;;;;;;;6210308;23;19915;-77
2022/01/17 10:41:15;;;;;;;;;;;;;;;;;;6184210;23;20245;-77
2022/01/17 10:43:43;;;;;;;;;;;;;;;;;;6210566;23;19910;-77
2022/01/17 10:46:09;;;;;;;;;;;;;;;;;;6212498;23;19929;-77
2022/01/17 10:48:35;;;;;;;;;;;;;;;;;;6211236;23;19904;-77
2022/01/17 10:51:01;;;;;;;;;;;;;;;;;;6214451;23;19979;-77
2022/01/17 10:53:27;;;;;;;;;;;;;;;;;;6212793;23;19961;-77
2022/01/17 10:55:53;;;;;;;;;;;;;;;;;;6214524;23;19931;-77
2022/01/17 10:58:23;;;;;;;;;;;;;;;;;;6187704;23;19951;-77
2022/01/17 11:00:49;;;;;;;;;;;;;;;;;;6210854;23;19904;-77
2022/01/17 11:03:15;;;;;;;;;;;;;;;;;;6213452;23;19904;-77
2022/01/17 11:05:41;;;;;;;;;;;;;;;;;;6212341;23;19904;-77
2022/01/17 11:08:07;;;;;;;;;;;;;;;;;;6213030;23;19904;-77
2022/01/17 11:10:32;;;;;;;;;;;;;;;;;;6212468;23;19987;-80
2022/01/17 11:12:58;;;;;;;;;;;;;;;;;;6187845;23;20341;-80
2022/01/17 11:15:24;;;;;;;;;;;;;;;;;;6212097;23;20250;-84
2022/01/17 11:17:57;;;;;;;;;;;;;;;;;;6216268;23;19912;-78
2022/01/17 11:20:22;;;;;;;;;;;;;;;;;;6185918;23;19903;-79
2022/01/17 11:22:48;;;;;;;;;;;;;;;;;;6214975;23;19931;-79
2022/01/17 11:25:14;;;;;;;;;;;;;;;;;;6210514;23;19911;-77
2022/01/17 11:27:40;;;;;;;;;;;;;;;;;;6213379;23;19931;-80
2022/01/17 11:30:06;;;;;;;;;;;;;;;;;;6212401;23;19919;-79
2022/01/17 11:32:32;;;;;;;;;;;;;;;;;;6210457;23;19908;-79
2022/01/17 11:34:58;;;;;;;;;;;;;;;;;;6214114;23;20242;-78
2022/01/17 11:37:24;;;;;;;;;;;;;;;;;;6211586;23;19912;-80
2022/01/17 11:39:50;;;;;;;;;;;;;;;;;;6187597;23;20296;-80
2022/01/17 11:42:16;;;;;;;;;;;;;;;;;;6215275;23;19900;-79
2022/01/17 11:44:42;;;;;;;;;;;;;;;;;;6215106;23;19975;-79
2022/01/17 11:47:07;;;;;;;;;;;;;;;;;;6215322;23;19950;-79
2022/01/17 11:49:38;;;;;;;;;;;;;;;;;;6213411;23;20288;-79
2022/01/17 11:52:10;;;;;;;;;;;;;;;;;;6215246;23;19978;-80
2022/01/17 11:54:36;;;;;;;;;;;;;;;;;;6215474;23;20214;-80
2022/01/17 11:57:02;;;;;;;;;;;;;;;;;;6215833;23;19927;-80
2022/01/17 11:59:28;;;;;;;;;;;;;;;;;;6188335;23;19911;-80
2022/01/17 12:01:54;;;;;;;;;;;;;;;;;;6215098;23;19904;-79
2022/01/17 12:04:20;;;;;;;;;;;;;;;;;;6215337;23;19963;-79
2022/01/17 12:06:46;;;;;;;;;;;;;;;;;;6188631;23;20332;-80
2022/01/17 12:09:12;;;;;;;;;;;;;;;;;;6215335;23;19978;-80
2022/01/17 12:11:38;;;;;;;;;;;;;;;;;;6215226;23;19904;-79
2022/01/17 12:14:03;;;;;;;;;;;;;;;;;;6188382;23;19904;-79
2022/01/17 12:16:32;;;;;;;;;;;;;;;;;;6215231;23;19995;-79
2022/01/17 12:18:59;;;;;;;;;;;;;;;;;;6215520;23;19911;-80
2022/01/17 12:21:28;;;;;;;;;;;;;;;;;;6181537;23;19904;-80
2022/01/17 12:23:54;;;;;;;;;;;;;;;;;;6184995;23;19915;-80
2022/01/17 12:26:20;;;;;;;;;;;;;;;;;;6212139;23;20333;-80
2022/01/17 12:28:46;;;;;;;;;;;;;;;;;;6210394;23;19954;-80
2022/01/17 12:31:12;;;;;;;;;;;;;;;;;;6211376;23;19931;-80
2022/01/17 12:33:39;;;;;;;;;;;;;;;;;;6207685;23;19908;-80
2022/01/17 12:36:05;;;;;;;;;;;;;;;;;;6183063;23;19904;-80
2022/01/17 12:38:31;;;;;;;;;;;;;;;;;;6212778;23;19993;-80
2022/01/17 12:40:57;;;;;;;;;;;;;;;;;;6210353;23;20003;-80
2022/01/17 12:43:24;;;;;;;;;;;;;;;;;;6185654;23;20242;-80
2022/01/17 12:45:51;;;;;;;;;;;;;;;;;;6213928;23;19904;-80
2022/01/17 12:48:17;;;;;;;;;;;;;;;;;;6211336;23;20397;-80
2022/01/17 12:50:43;;;;;;;;;;;;;;;;;;6210224;23;19907;-80
2022/01/17 12:53:09;;;;;;;;;;;;;;;;;;6210517;23;19904;-80
2022/01/17 12:55:35;;;;;;;;;;;;;;;;;;6212745;23;19915;-79
2022/01/17 12:58:01;;;;;;;;;;;;;;;;;;6210588;23;20242;-80
2022/01/17 13:00:27;;;;;;;;;;;;;;;;;;6214133;23;19975;-80
2022/01/17 13:02:53;;;;;;;;;;;;;;;;;;6182900;23;19908;-80
2022/01/17 13:05:19;;;;;;;;;;;;;;;;;;6213878;23;19978;-80
2022/01/17 13:07:45;;;;;;;;;;;;;;;;;;6211063;23;19908;-80
2022/01/17 13:10:11;;;;;;;;;;;;;;;;;;6213578;23;20373;-82
2022/01/17 13:12:37;;;;;;;;;;;;;;;;;;6211542;23;19910;-81
2022/01/17 13:15:03;;;;;;;;;;;;;;;;;;6212392;23;20354;-80
2022/01/17 13:17:29;;;;;;;;;;;;;;;;;;6212338;23;19916;-80
2022/01/17 13:19:55;;;;;;;;;;;;;;;;;;6211198;23;19904;-79
2022/01/17 13:22:21;;;;;;;;;;;;;;;;;;6213313;23;19912;-80
2022/01/17 13:24:55;;;;;;;;;;;;;;;;;;6210864;23;19904;-80
2022/01/17 13:27:20;;;;;;;;;;;;;;;;;;6213051;23;19961;-79
2022/01/17 13:29:47;;;;;;;;;;;;;;;;;;6211706;23;19923;-79
2022/01/17 13:32:12;;;;;;;;;;;;;;;;;;6212383;23;20325;-80
2022/01/17 13:34:39;;;;;;;;;;;;;;;;;;6184552;23;19904;-80
2022/01/17 13:37:05;;;;;;;;;;;;;;;;;;6211652;23;19911;-79
2022/01/17 13:39:31;;;;;;;;;;;;;;;;;;6209954;23;20308;-80
2022/01/17 13:41:57;;;;;;;;;;;;;;;;;;6212377;23;19935;-80
2022/01/17 13:44:23;;;;;;;;;;;;;;;;;;6187052;23;19908;-80
2022/01/17 13:46:48;;;;;;;;;;;;;;;;;;6209695;23;19958;-80
2022/01/17 13:49:14;;;;;;;;;;;;;;;;;;6186586;23;19904;-80
2022/01/17 13:51:40;;;;;;;;;;;;;;;;;;6209753;23;19919;-80
2022/01/17 13:54:06;;;;;;;;;;;;;;;;;;6212495;23;20245;-79
2022/01/17 13:56:32;;;;;;;;;;;;;;;;;;6210166;23;19904;-79
2022/01/17 13:58:58;;;;;;;;;;;;;;;;;;6187174;23;19947;-79
2022/01/17 14:01:24;;;;;;;;;;;;;;;;;;6210758;23;19904;-84
2022/01/17 14:03:50;;;;;;;;;;;;;;;;;;6209485;23;19908;-79
2022/01/17 14:06:16;;;;;;;;;;;;;;;;;;6209078;23;20293;-79
2022/01/17 14:08:42;;;;;;;;;;;;;;;;;;6211641;23;19904;-80
2022/01/17 14:11:08;;;;;;;;;;;;;;;;;;6211198;23;19903;-79
2022/01/17 14:13:34;;;;;;;;;;;;;;;;;;6212140;23;20352;-79
2022/01/17 14:16:00;;;;;;;;;;;;;;;;;;6211997;23;19922;-79
2022/01/17 14:18:26;;;;;;;;;;;;;;;;;;6210132;23;19911;-79
2022/01/17 14:20:52;;;;;;;;;;;;;;;;;;6185298;23;20297;-80
2022/01/17 14:23:18;;;;;;;;;;;;;;;;;;6208554;23;19927;-79
2022/01/17 14:25:44;;;;;;;;;;;;;;;;;;6185667;23;19911;-79
2022/01/17 14:28:10;;;;;;;;;;;;;;;;;;6209832;23;19919;-79
2022/01/17 14:30:37;;;;;;;;;;;;;;;;;;6183543;23;19908;-79
2022/01/17 14:33:03;;;;;;;;;;;;;;;;;;6211461;23;19959;-79
2022/01/17 14:35:28;;;;;;;;;;;;;;;;;;6184708;23;19908;-79
2022/01/17 14:37:54;;;;;;;;;;;;;;;;;;6208240;23;19908;-80
2022/01/17 14:40:20;;;;;;;;;;;;;;;;;;6213310;23;19912;-79
2022/01/17 14:42:48;;;;;;;;;;;;;;;;;;6209839;23;19923;-79
2022/01/17 14:45:16;;;;;;;;;;;;;;;;;;6185943;23;19958;-80
2022/01/17 14:47:42;;;;;;;;;;;;;;;;;;6210198;23;20369;-79
2022/01/17 14:50:08;;;;;;;;;;;;;;;;;;6185666;23;19935;-79
2022/01/17 14:52:34;;;;;;;;;;;;;;;;;;6210042;23;19903;-79
2022/01/17 15:00:32;;;;;;;;;;;;;;;;;;6213657;23;19914;-84
2022/01/17 15:03:12;;;;;;;;;;;;;;;;;;6183517;23;20364;-90
2022/01/17 15:05:39;;;;;;;;;;;;;;;;;;6213368;23;19908;-80
2022/01/17 15:08:06;;;;;;;;;;;;;;;;;;6209558;23;19904;-80
2022/01/17 15:10:32;;;;;;;;;;;;;;;;;;6212792;23;19904;-80
2022/01/17 15:12:57;;;;;;;;;;;;;;;;;;6182835;23;19904;-80
2022/01/17 15:15:23;;;;;;;;;;;;;;;;;;6211948;23;19911;-80
2022/01/17 15:17:49;;;;;;;;;;;;;;;;;;6185712;23;19912;-80
2022/01/17 15:20:15;;;;;;;;;;;;;;;;;;6212505;23;19915;-81
2022/01/17 15:22:41;;;;;;;;;;;;;;;;;;6212554;23;20000;-80
2022/01/17 15:25:07;;;;;;;;;;;;;;;;;;6210453;23;19904;-80
2022/01/17 15:27:33;;;;;;;;;;;;;;;;;;6212699;23;20241;-80
2022/01/17 15:30:02;;;;;;;;;;;;;;;;;;6211345;23;19911;-81
2022/01/17 15:32:28;;;;;;;;;;;;;;;;;;6186759;23;19910;-79
2022/01/17 15:34:54;;;;;;;;;;;;;;;;;;6211685;23;19904;-80
2022/01/17 15:37:21;;;;;;;;;;;;;;;;;;6212106;23;19903;-80
2022/01/17 15:39:47;;;;;;;;;;;;;;;;;;6212768;23;19908;-80
2022/01/17 15:42:13;;;;;;;;;;;;;;;;;;6213464;23;20292;-80
2022/01/17 15:44:39;;;;;;;;;;;;;;;;;;6213912;23;19904;-80
2022/01/17 15:47:05;;;;;;;;;;;;;;;;;;6211117;23;20333;-80
2022/01/17 17:07:25;;;;;;;;;;;;;;;;;;6200462;23;19927;-77
2022/01/17 17:09:51;;;;;;;;;;;;;;;;;;6189603;23;19904;-77
2022/01/17 17:12:16;;;;;;;;;;;;;;;;;;6215436;23;19904;-77
2022/01/17 17:14:42;;;;;;;;;;;;;;;;;;6189530;23;19904;-78
2022/01/17 17:17:08;;;;;;;;;;;;;;;;;;6189076;23;19900;-77
2022/01/17 17:19:34;;;;;;;;;;;;;;;;;;6216482;23;20558;-75
2022/01/17 17:22:00;;;;;;;;;;;;;;;;;;6216045;23;20292;-76
2022/01/17 17:24:26;;;;;;;;;;;;;;;;;;6215598;23;19911;-76
2022/01/17 17:26:52;;;;;;;;;;;;;;;;;;6215463;23;19904;-76
2022/01/17 17:29:18;;;;;;;;;;;;;;;;;;6188033;23;19975;-77
2022/01/17 17:31:44;;;;;;;;;;;;;;;;;;6213916;23;19932;-76
2022/01/17 17:34:10;;;;;;;;;;;;;;;;;;6215724;23;19904;-76
2022/01/17 17:36:36;;;;;;;;;;;;;;;;;;6189439;23;19904;-75
2022/01/17 17:39:02;;;;;;;;;;;;;;;;;;6215679;23;20309;-76
2022/01/17 17:41:28;;;;;;;;;;;;;;;;;;6215474;23;19908;-76
2022/01/17 17:43:54;;;;;;;;;;;;;;;;;;6215706;23;20241;-77
2022/01/17 17:46:20;;;;;;;;;;;;;;;;;;6215144;23;19932;-76
2022/01/17 17:48:46;;;;;;;;;;;;;;;;;;6215873;23;19982;-78
2022/01/17 17:51:13;;;;;;;;;;;;;;;;;;6215532;23;20353;-76
2022/01/17 17:53:43;;;;;;;;;;;;;;;;;;6189401;23;19904;-76
2022/01/17 17:56:09;;;;;;;;;;;;;;;;;;6215578;23;19910;-76
2022/01/17 17:58:35;;;;;;;;;;;;;;;;;;6215406;23;19983;-77
2022/01/17 18:01:01;;;;;;;;;;;;;;;;;;6215507;23;19979;-77
2022/01/17 18:03:27;;;;;;;;;;;;;;;;;;6215791;23;19979;-76
2022/01/17 18:05:53;;;;;;;;;;;;;;;;;;6189229;23;19991;-77
2022/01/17 18:08:19;;;;;;;;;;;;;;;;;;6214855;23;19993;-76
2022/01/17 18:10:45;;;;;;;;;;;;;;;;;;6215671;23;20391;-77
2022/01/17 18:13:13;;;;;;;;;;;;;;;;;;6216001;23;20218;-76
2022/01/17 18:15:39;;;;;;;;;;;;;;;;;;6215232;23;19904;-76
2022/01/17 18:18:05;;;;;;;;;;;;;;;;;;6215130;23;19970;-76
2022/01/17 18:20:31;;;;;;;;;;;;;;;;;;6209498;23;20254;-76
2022/01/17 18:22:57;;;;;;;;;;;;;;;;;;6214800;23;19979;-77
2022/01/17 18:25:22;;;;;;;;;;;;;;;;;;6214967;23;19904;-77
2022/01/17 18:27:48;;;;;;;;;;;;;;;;;;6215143;23;19904;-74
2022/01/17 18:30:14;;;;;;;;;;;;;;;;;;6214974;23;20330;-76
2022/01/17 18:32:40;;;;;;;;;;;;;;;;;;6214757;23;19904;-76
2022/01/17 18:35:06;;;;;;;;;;;;;;;;;;6215344;23;20250;-76
2022/01/17 18:37:33;;;;;;;;;;;;;;;;;;6215311;23;19939;-77
2022/01/17 18:39:59;;;;;;;;;;;;;;;;;;6214705;23;19958;-77
2022/01/17 18:42:24;;;;;;;;;;;;;;;;;;6214731;23;20509;-77
2022/01/17 18:44:50;;;;;;;;;;;;;;;;;;6214894;23;19911;-76
2022/01/17 18:47:16;;;;;;;;;;;;;;;;;;6215145;23;19904;-76
2022/01/17 18:49:43;;;;;;;;;;;;;;;;;;6215023;23;19904;-77
2022/01/17 18:52:16;;;;;;;;;;;;;;;;;;6214903;23;20322;-77
2022/01/17 18:54:42;;;;;;;;;;;;;;;;;;6215107;23;20245;-77
2022/01/17 18:57:08;;;;;;;;;;;;;;;;;;6215584;23;19934;-76
2022/01/17 18:59:34;;;;;;;;;;;;;;;;;;6187868;23;19916;-77
2022/01/17 19:02:00;;;;;;;;;;;;;;;;;;6215364;23;19904;-77
2022/01/17 19:04:26;;;;;;;;;;;;;;;;;;6215207;23;20359;-77
2022/01/17 19:06:52;;;;;;;;;;;;;;;;;;6214696;23;19920;-79
2022/01/17 19:09:18;;;;;;;;;;;;;;;;;;6216237;23;19904;-79
2022/01/17 19:11:44;;;;;;;;;;;;;;;;;;6188694;23;19904;-76
2022/01/17 19:14:09;;;;;;;;;;;;;;;;;;6215553;23;19904;-78
2022/01/17 19:16:35;;;;;;;;;;;;;;;;;;6216623;23;19911;-77
2022/01/17 19:19:18;;;;;;;;;;;;;;;;;;6216497;23;19960;-79
2022/01/17 19:21:45;;;;;;;;;;;;;;;;;;6215983;23;19904;-78
2022/01/17 19:24:11;;;;;;;;;;;;;;;;;;6216325;23;19935;-79
2022/01/17 19:26:37;;;;;;;;;;;;;;;;;;6216030;23;20333;-79
2022/01/17 19:29:03;;;;;;;;;;;;;;;;;;6216710;23;19904;-79
2022/01/17 19:31:28;;;;;;;;;;;;;;;;;;6190484;23;20326;-79
2022/01/17 19:33:54;;;;;;;;;;;;;;;;;;6216726;23;19904;-78
2022/01/17 19:36:20;;;;;;;;;;;;;;;;;;6216929;23;19955;-78
2022/01/17 19:38:46;;;;;;;;;;;;;;;;;;6215982;23;19914;-79
2022/01/17 19:41:12;;;;;;;;;;;;;;;;;;6190458;23;19910;-79
2022/01/17 19:43:38;;;;;;;;;;;;;;;;;;6216314;23;20278;-78
2022/01/17 19:46:04;;;;;;;;;;;;;;;;;;6190303;23;19903;-78
2022/01/17 19:48:30;;;;;;;;;;;;;;;;;;6216714;23;19930;-78
2022/01/17 19:50:56;;;;;;;;;;;;;;;;;;6216706;23;19910;-79
2022/01/17 19:53:27;;;;;;;;;;;;;;;;;;6190423;23;19983;-78
2022/01/17 19:55:54;;;;;;;;;;;;;;;;;;6216269;23;19904;-79
2022/01/17 19:58:20;;;;;;;;;;;;;;;;;;6216731;23;20285;-78
2022/01/17 20:00:46;;;;;;;;;;;;;;;;;;6216459;23;19904;-78
2022/01/17 20:03:12;;;;;;;;;;;;;;;;;;6190419;23;19904;-80
2022/01/17 20:05:38;;;;;;;;;;;;;;;;;;6216339;23;19911;-79
2022/01/17 20:08:03;;;;;;;;;;;;;;;;;;6216003;23;19918;-77
2022/01/17 20:10:29;;;;;;;;;;;;;;;;;;6215705;23;20281;-82
2022/01/17 20:12:57;;;;;;;;;;;;;;;;;;6215352;23;21439;-77
2022/01/17 20:15:23;;;;;;;;;;;;;;;;;;6189543;23;19908;-78
2022/01/17 20:17:49;;;;;;;;;;;;;;;;;;6189702;23;19907;-78
2022/01/17 20:20:15;;;;;;;;;;;;;;;;;;6216284;23;20272;-78